Time;durP1;ratioP1;P1;durP2;ratioP2;P2;SDS_P1;SDS_P2;PMS_P1;PMS_P2;Temp;Humidity;BMP_temperature;BMP_pressure;BME280_temperature;BME280_humidity;BME280_pressure;Samples;Min_cycle;Max_cycle;Signal;HPM_P1;HPM_P2
2021/04/26 00:00:24;;;;;;;;;;;17.80;57.50;;;;;;1031458;28;20343;-79
2021/04/26 00:00:55;;;;;;;;;;;17.90;57.30;;;;;;1037350;28;19905;-79
2021/04/26 00:01:26;;;;;;;;;;;17.80;57.30;;;;;;1040887;28;19905;-78
2021/04/26 00:01:57;;;;;;;;;;;17.80;57.30;;;;;;1040096;28;19917;-78
2021/04/26 00:02:28;;;;;;;;;;;17.80;57.40;;;;;;1038431;28;20000;-80
2021/04/26 00:03:00;;;;;;;;;;;17.80;57.70;;;;;;1038190;28;19918;-80
2021/04/26 00:03:31;;;;;;;;;;;17.80;57.70;;;;;;1041116;28;19905;-79
2021/04/26 00:04:03;;;;;;;;;;;17.80;57.70;;;;;;1041132;28;19916;-79
2021/04/26 00:04:34;;;;;;;;;;;17.80;57.80;;;;;;1040699;28;19994;-79
2021/04/26 00:05:05;;;;;;;;;;;17.80;57.90;;;;;;1037245;28;20383;-80
2021/04/26 00:05:36;;;;;;;;;;;17.80;57.90;;;;;;1041040;28;19909;-80
2021/04/26 00:06:07;;;;;;;;;;;17.80;57.70;;;;;;1041140;28;20266;-79
2021/04/26 00:06:38;;;;;;;;;;;17.80;57.60;;;;;;1041083;28;19936;-80
2021/04/26 00:07:09;;;;;;;;;;;17.90;57.40;;;;;;1041031;28;19928;-79
2021/04/26 00:07:41;;;;;;;;;;;17.80;57.40;;;;;;1041000;28;19991;-79
2021/04/26 00:08:12;;;;;;;;;;;17.80;57.70;;;;;;1040892;28;19905;-79
2021/04/26 00:08:43;;;;;;;;;;;17.80;57.70;;;;;;1041115;28;19984;-79
2021/04/26 00:09:14;;;;;;;;;;;17.80;58.20;;;;;;1041089;28;19962;-80
2021/04/26 00:09:45;;;;;;;;;;;17.80;58.00;;;;;;1041004;28;19913;-82
2021/04/26 00:10:17;;;;;;;;;;;17.80;57.50;;;;;;1041113;28;19916;-80
2021/04/26 00:10:47;;;;;;;;;;;17.80;56.40;;;;;;1041420;28;19932;-79
2021/04/26 00:11:19;;;;;;;;;;;17.80;56.30;;;;;;1040734;28;20418;-79
2021/04/26 00:11:50;;;;;;;;;;;17.80;56.40;;;;;;1040978;28;20373;-79
2021/04/26 00:12:21;;;;;;;;;;;17.80;56.40;;;;;;1041009;28;20346;-79
2021/04/26 00:12:52;;;;;;;;;;;17.80;56.30;;;;;;1041103;28;19992;-80
2021/04/26 00:13:23;;;;;;;;;;;17.80;56.70;;;;;;1041070;28;19971;-80
2021/04/26 00:13:54;;;;;;;;;;;17.80;56.70;;;;;;1041007;28;20314;-79
2021/04/26 00:14:25;;;;;;;;;;;17.80;56.20;;;;;;1040690;28;19948;-79
2021/04/26 00:14:56;;;;;;;;;;;17.70;56.30;;;;;;1040938;28;19921;-79
2021/04/26 00:15:28;;;;;;;;;;;17.70;56.60;;;;;;1040979;28;20298;-79
2021/04/26 00:15:59;;;;;;;;;;;17.70;57.00;;;;;;1033279;28;19920;-79
2021/04/26 00:16:30;;;;;;;;;;;17.70;57.30;;;;;;1037072;28;19909;-79
2021/04/26 00:17:01;;;;;;;;;;;17.70;57.30;;;;;;1036971;28;19949;-79
2021/04/26 00:17:32;;;;;;;;;;;17.70;57.50;;;;;;1037415;28;19936;-79
2021/04/26 00:18:03;;;;;;;;;;;17.80;57.20;;;;;;1039934;28;19909;-78
2021/04/26 00:18:34;;;;;;;;;;;17.80;56.70;;;;;;1040691;28;19916;-80
2021/04/26 00:19:05;;;;;;;;;;;17.80;56.60;;;;;;1036854;28;19909;-78
2021/04/26 00:19:36;;;;;;;;;;;17.80;56.70;;;;;;1036364;28;19948;-79
2021/04/26 00:20:09;;;;;;;;;;;17.80;56.80;;;;;;1036568;28;19909;-79
2021/04/26 00:20:40;;;;;;;;;;;17.80;57.30;;;;;;1037048;28;20004;-79
2021/04/26 00:21:11;;;;;;;;;;;17.80;56.60;;;;;;1038364;28;19917;-79
2021/04/26 00:21:42;;;;;;;;;;;17.80;56.60;;;;;;1041213;28;20335;-79
2021/04/26 00:22:13;;;;;;;;;;;17.80;56.70;;;;;;1041354;28;19917;-79
2021/04/26 00:22:45;;;;;;;;;;;17.80;56.20;;;;;;1041382;28;20327;-79
2021/04/26 00:23:16;;;;;;;;;;;17.80;56.30;;;;;;1040934;28;20008;-79
2021/04/26 00:23:47;;;;;;;;;;;17.80;56.60;;;;;;1040846;28;19927;-79
2021/04/26 00:24:18;;;;;;;;;;;17.80;56.70;;;;;;1040885;28;19932;-79
2021/04/26 00:24:49;;;;;;;;;;;17.70;56.80;;;;;;1040243;28;20216;-80
2021/04/26 00:25:20;;;;;;;;;;;17.70;57.10;;;;;;1040333;28;20001;-78
2021/04/26 00:25:51;;;;;;;;;;;17.60;57.20;;;;;;1041025;28;20366;-79
2021/04/26 00:26:23;;;;;;;;;;;17.60;57.30;;;;;;1037403;28;20000;-78
2021/04/26 00:26:54;;;;;;;;;;;17.60;57.50;;;;;;1038464;28;20016;-79
2021/04/26 00:27:25;;;;;;;;;;;17.60;57.70;;;;;;1041052;28;20004;-79
2021/04/26 00:27:56;;;;;;;;;;;17.60;57.90;;;;;;1037078;28;20107;-80
2021/04/26 00:28:27;;;;;;;;;;;17.60;58.10;;;;;;1040829;28;19909;-79
2021/04/26 00:28:58;;;;;;;;;;;17.60;58.30;;;;;;1041054;28;20369;-79
2021/04/26 00:29:29;;;;;;;;;;;17.60;58.10;;;;;;1040754;28;20239;-79
2021/04/26 00:30:01;;;;;;;;;;;17.60;57.80;;;;;;1041260;28;20338;-80
2021/04/26 00:30:32;;;;;;;;;;;17.60;57.90;;;;;;1045065;28;19908;-80
2021/04/26 00:31:04;;;;;;;;;;;17.60;58.10;;;;;;1043502;28;19909;-80
2021/04/26 00:31:35;;;;;;;;;;;17.50;58.00;;;;;;1036946;28;19905;-79
2021/04/26 00:32:06;;;;;;;;;;;17.50;58.00;;;;;;1040926;28;19905;-79
2021/04/26 00:32:37;;;;;;;;;;;17.50;58.20;;;;;;1040582;28;19905;-80
2021/04/26 00:33:08;;;;;;;;;;;17.50;58.30;;;;;;1040536;28;19909;-79
2021/04/26 00:33:39;;;;;;;;;;;17.50;58.30;;;;;;1039834;28;19979;-79
2021/04/26 00:34:10;;;;;;;;;;;17.50;58.20;;;;;;1041002;28;19915;-79
2021/04/26 00:34:41;;;;;;;;;;;17.50;58.40;;;;;;1036959;28;19984;-79
2021/04/26 00:35:13;;;;;;;;;;;17.60;58.10;;;;;;1040780;28;19912;-79
2021/04/26 00:35:44;;;;;;;;;;;17.60;58.10;;;;;;1040482;28;19906;-79
2021/04/26 00:36:15;;;;;;;;;;;17.60;58.30;;;;;;1040171;28;19951;-79
2021/04/26 00:36:46;;;;;;;;;;;17.50;58.30;;;;;;1036596;28;19918;-79
2021/04/26 00:37:17;;;;;;;;;;;17.50;58.50;;;;;;1036795;28;19910;-79
2021/04/26 00:37:49;;;;;;;;;;;17.50;58.60;;;;;;1034377;28;21554;-78
2021/04/26 00:38:20;;;;;;;;;;;17.40;57.40;;;;;;1033231;28;19937;-78
2021/04/26 00:38:51;;;;;;;;;;;17.40;57.50;;;;;;1040638;28;20010;-79
2021/04/26 00:39:22;;;;;;;;;;;17.30;57.10;;;;;;1036927;28;19905;-79
2021/04/26 00:39:53;;;;;;;;;;;17.30;56.90;;;;;;1039799;28;19963;-78
2021/04/26 00:40:24;;;;;;;;;;;17.30;57.20;;;;;;1036760;28;20009;-80
2021/04/26 00:40:56;;;;;;;;;;;17.30;57.30;;;;;;1036932;28;19905;-78
2021/04/26 00:41:27;;;;;;;;;;;17.30;57.40;;;;;;1037034;28;19906;-78
2021/04/26 00:41:58;;;;;;;;;;;17.30;57.50;;;;;;1032837;28;19906;-78
2021/04/26 00:42:29;;;;;;;;;;;17.30;57.40;;;;;;1029150;28;20341;-79
2021/04/26 00:43:00;;;;;;;;;;;17.30;57.70;;;;;;1036932;28;19996;-80
2021/04/26 00:43:31;;;;;;;;;;;17.20;57.50;;;;;;1037083;28;19905;-79
2021/04/26 00:44:02;;;;;;;;;;;17.20;57.70;;;;;;1040060;28;19952;-79
2021/04/26 00:44:33;;;;;;;;;;;17.30;57.70;;;;;;1040934;28;20248;-79
2021/04/26 00:45:08;;;;;;;;;;;17.30;57.30;;;;;;1040922;28;19905;-79
2021/04/26 00:45:39;;;;;;;;;;;17.30;57.40;;;;;;1040953;28;20354;-79
2021/04/26 00:46:12;;;;;;;;;;;17.30;57.40;;;;;;1040962;28;19912;-78
2021/04/26 00:46:43;;;;;;;;;;;17.30;57.50;;;;;;1040970;28;20359;-79
2021/04/26 00:47:14;;;;;;;;;;;17.30;57.70;;;;;;1036858;28;20383;-78
2021/04/26 00:47:45;;;;;;;;;;;17.30;57.80;;;;;;1036816;28;19905;-79
2021/04/26 00:48:16;;;;;;;;;;;17.30;57.80;;;;;;1037259;28;19929;-80
2021/04/26 00:48:48;;;;;;;;;;;17.30;57.80;;;;;;1037180;28;19913;-79
2021/04/26 00:49:19;;;;;;;;;;;17.30;57.80;;;;;;1040985;28;19973;-79
2021/04/26 00:49:50;;;;;;;;;;;17.20;57.90;;;;;;1040686;28;19921;-79
2021/04/26 00:50:23;;;;;;;;;;;17.20;57.90;;;;;;1041055;28;19936;-80
2021/04/26 00:50:54;;;;;;;;;;;17.30;57.80;;;;;;1040543;28;19913;-79
2021/04/26 00:51:25;;;;;;;;;;;17.30;57.80;;;;;;1037300;28;20245;-79
2021/04/26 00:51:56;;;;;;;;;;;17.30;57.60;;;;;;1037972;28;19914;-79
2021/04/26 00:52:27;;;;;;;;;;;17.40;57.70;;;;;;1032821;28;19913;-79
2021/04/26 00:53:00;;;;;;;;;;;17.40;57.70;;;;;;1037202;28;19955;-79
2021/04/26 00:53:31;;;;;;;;;;;17.40;57.20;;;;;;1040474;28;19909;-78
2021/04/26 00:54:02;;;;;;;;;;;17.40;57.00;;;;;;1040754;28;19909;-79
2021/04/26 00:54:33;;;;;;;;;;;17.50;57.20;;;;;;1040894;28;19975;-79
2021/04/26 00:55:05;;;;;;;;;;;17.50;57.30;;;;;;1036893;28;19909;-79
2021/04/26 00:55:38;;;;;;;;;;;17.50;57.30;;;;;;1032792;28;20045;-79
2021/04/26 00:56:09;;;;;;;;;;;17.50;56.90;;;;;;1032860;28;19948;-78
2021/04/26 00:56:40;;;;;;;;;;;17.50;56.60;;;;;;1033098;28;19918;-79
2021/04/26 00:57:11;;;;;;;;;;;17.60;56.70;;;;;;1033319;28;19910;-79
2021/04/26 00:57:42;;;;;;;;;;;17.60;56.70;;;;;;1036725;28;20059;-79
2021/04/26 00:58:13;;;;;;;;;;;17.60;56.80;;;;;;1040492;28;19917;-79
2021/04/26 00:58:44;;;;;;;;;;;17.60;56.40;;;;;;1036107;28;19909;-78
2021/04/26 00:59:15;;;;;;;;;;;17.60;56.40;;;;;;1031540;28;19987;-79
2021/04/26 00:59:46;;;;;;;;;;;17.60;56.50;;;;;;1031280;28;19932;-79
2021/04/26 01:00:18;;;;;;;;;;;17.60;56.50;;;;;;1032617;28;19960;-77
2021/04/26 01:00:50;;;;;;;;;;;17.60;56.70;;;;;;1032139;28;19914;-79
2021/04/26 01:01:21;;;;;;;;;;;17.60;56.80;;;;;;1032199;28;19918;-79
2021/04/26 01:01:52;;;;;;;;;;;17.60;56.80;;;;;;1035872;28;19921;-78
2021/04/26 01:02:26;;;;;;;;;;;17.60;56.70;;;;;;1035770;28;20255;-78
2021/04/26 01:02:57;;;;;;;;;;;17.60;56.70;;;;;;1039466;28;19913;-79
2021/04/26 01:03:28;;;;;;;;;;;17.60;56.40;;;;;;1037477;28;19936;-78
2021/04/26 01:04:00;;;;;;;;;;;17.60;56.30;;;;;;1040883;28;19909;-79
2021/04/26 01:04:31;;;;;;;;;;;17.60;56.30;;;;;;1040983;28;19913;-79
2021/04/26 01:05:03;;;;;;;;;;;17.60;56.20;;;;;;1040790;28;19928;-78
2021/04/26 01:05:35;;;;;;;;;;;17.60;56.20;;;;;;1040794;28;19916;-79
2021/04/26 01:06:06;;;;;;;;;;;17.60;56.00;;;;;;1040381;28;20294;-79
2021/04/26 01:06:37;;;;;;;;;;;17.60;56.20;;;;;;1036891;28;20000;-79
2021/04/26 01:07:08;;;;;;;;;;;17.60;56.10;;;;;;1037194;28;20000;-78
2021/04/26 01:07:40;;;;;;;;;;;17.60;56.30;;;;;;1036979;28;19992;-79
2021/04/26 01:08:11;;;;;;;;;;;17.60;56.50;;;;;;1037110;28;20310;-79
2021/04/26 01:08:42;;;;;;;;;;;17.60;56.40;;;;;;1040760;28;19909;-79
2021/04/26 01:09:13;;;;;;;;;;;17.70;56.40;;;;;;1036862;28;19910;-79
2021/04/26 01:09:44;;;;;;;;;;;17.80;56.30;;;;;;1036403;28;19972;-78
2021/04/26 01:10:22;;;;;;;;;;;17.80;55.90;;;;;;1036823;28;20340;-78
2021/04/26 01:10:54;;;;;;;;;;;17.90;55.70;;;;;;1038842;28;19906;-79
2021/04/26 01:11:28;;;;;;;;;;;17.90;55.60;;;;;;1041959;28;20331;-78
2021/04/26 01:12:12;;;;;;;;;;;17.80;56.30;;;;;;1041667;28;19905;-78
2021/04/26 01:13:01;;;;;;;;;;;17.90;55.30;;;;;;1037602;28;19916;-79
2021/04/26 01:13:50;;;;;;;;;;;17.90;54.70;;;;;;1038041;28;19905;-79
2021/04/26 01:14:40;;;;;;;;;;;17.90;54.80;;;;;;1041871;28;19909;-79
2021/04/26 01:15:30;;;;;;;;;;;18.00;54.90;;;;;;1042069;28;19956;-78
2021/04/26 01:16:05;;;;;;;;;;;17.90;54.80;;;;;;1041987;28;20367;-79
2021/04/26 01:16:39;;;;;;;;;;;17.90;54.70;;;;;;1042123;28;20322;-79
2021/04/26 01:17:18;;;;;;;;;;;17.90;55.00;;;;;;1041661;28;19909;-79
2021/04/26 01:17:54;;;;;;;;;;;17.90;55.00;;;;;;1041665;28;19913;-79
2021/04/26 01:18:31;;;;;;;;;;;17.90;55.20;;;;;;1041673;28;19943;-79
2021/04/26 01:19:09;;;;;;;;;;;17.80;55.50;;;;;;1041807;28;19956;-79
2021/04/26 01:19:42;;;;;;;;;;;17.80;55.60;;;;;;1041570;28;19955;-78
2021/04/26 01:20:16;;;;;;;;;;;17.80;55.50;;;;;;1041551;28;19920;-78
2021/04/26 01:21:02;;;;;;;;;;;17.80;55.60;;;;;;1037536;28;19910;-78
2021/04/26 01:21:52;;;;;;;;;;;17.80;55.20;;;;;;1036458;28;19917;-79
2021/04/26 01:22:33;;;;;;;;;;;17.80;55.10;;;;;;1041750;28;19936;-78
2021/04/26 01:23:22;;;;;;;;;;;17.80;54.70;;;;;;1037329;28;20330;-79
2021/04/26 01:24:21;;;;;;;;;;;17.80;54.50;;;;;;1040001;28;20355;-78
2021/04/26 01:24:58;;;;;;;;;;;17.80;54.40;;;;;;1041527;28;19921;-78
2021/04/26 01:25:31;;;;;;;;;;;17.80;54.40;;;;;;1040675;28;19968;-78
2021/04/26 01:26:03;;;;;;;;;;;17.70;54.20;;;;;;1041598;28;19909;-79
2021/04/26 01:26:52;;;;;;;;;;;17.70;54.40;;;;;;1040778;28;20243;-79
2021/04/26 01:27:26;;;;;;;;;;;17.60;54.50;;;;;;1037658;28;19913;-79
2021/04/26 01:28:03;;;;;;;;;;;17.70;54.40;;;;;;1037458;28;19917;-79
2021/04/26 01:28:51;;;;;;;;;;;17.60;54.30;;;;;;1040732;28;19921;-79
2021/04/26 01:29:35;;;;;;;;;;;17.70;54.10;;;;;;1037356;28;19913;-78
2021/04/26 01:30:30;;;;;;;;;;;17.70;53.90;;;;;;1040042;28;19919;-78
2021/04/26 01:31:01;;;;;;;;;;;17.60;53.90;;;;;;1041982;28;19913;-79
2021/04/26 01:31:51;;;;;;;;;;;17.60;54.00;;;;;;1043625;28;20031;-79
2021/04/26 01:32:41;;;;;;;;;;;17.60;53.90;;;;;;1045594;28;19912;-78
2021/04/26 01:33:14;;;;;;;;;;;17.50;53.00;;;;;;1041064;28;19940;-78
2021/04/26 01:33:51;;;;;;;;;;;17.40;53.40;;;;;;1039772;28;19917;-78
2021/04/26 01:34:27;;;;;;;;;;;17.40;53.70;;;;;;1033309;28;20331;-79
2021/04/26 01:34:58;;;;;;;;;;;17.40;54.10;;;;;;1033120;28;19918;-78
2021/04/26 01:35:31;;;;;;;;;;;17.40;54.20;;;;;;1033379;28;20352;-78
2021/04/26 01:36:03;;;;;;;;;;;17.40;53.80;;;;;;1030564;28;19910;-79
2021/04/26 01:36:34;;;;;;;;;;;17.50;53.50;;;;;;1026694;28;20238;-79
2021/04/26 01:37:06;;;;;;;;;;;17.50;53.30;;;;;;1032326;28;20000;-79
2021/04/26 01:37:37;;;;;;;;;;;17.50;53.20;;;;;;1031761;28;20332;-78
2021/04/26 01:38:16;;;;;;;;;;;17.50;53.10;;;;;;1035490;28;20052;-78
2021/04/26 01:38:47;;;;;;;;;;;17.50;52.70;;;;;;1041816;28;19917;-79
2021/04/26 01:39:19;;;;;;;;;;;17.50;52.80;;;;;;1040517;28;19909;-79
2021/04/26 01:39:51;;;;;;;;;;;17.40;53.00;;;;;;1041348;28;20332;-79
2021/04/26 01:40:24;;;;;;;;;;;17.50;53.30;;;;;;1034023;28;19937;-79
2021/04/26 01:40:57;;;;;;;;;;;17.40;53.40;;;;;;1033517;28;20273;-79
2021/04/26 01:41:29;;;;;;;;;;;17.40;53.60;;;;;;1036145;28;19918;-78
2021/04/26 01:42:01;;;;;;;;;;;17.40;53.70;;;;;;1037544;28;20367;-79
2021/04/26 01:42:33;;;;;;;;;;;17.40;53.60;;;;;;1037978;28;19925;-79
2021/04/26 01:43:04;;;;;;;;;;;17.40;53.90;;;;;;1040454;28;20351;-78
2021/04/26 01:43:36;;;;;;;;;;;17.30;53.80;;;;;;1037838;28;19913;-78
2021/04/26 01:44:07;;;;;;;;;;;17.30;53.80;;;;;;1041622;28;20008;-79
2021/04/26 01:44:38;;;;;;;;;;;17.40;53.70;;;;;;1040465;28;19959;-78
2021/04/26 01:45:11;;;;;;;;;;;17.40;53.40;;;;;;1033824;28;19921;-76
2021/04/26 01:45:42;;;;;;;;;;;17.40;53.60;;;;;;1033175;28;19929;-79
2021/04/26 01:46:15;;;;;;;;;;;17.40;53.40;;;;;;1033196;28;19960;-79
2021/04/26 01:46:46;;;;;;;;;;;17.40;53.10;;;;;;1034041;28;19924;-79
2021/04/26 01:47:17;;;;;;;;;;;17.40;52.70;;;;;;1038032;28;19952;-79
2021/04/26 01:47:52;;;;;;;;;;;17.50;52.70;;;;;;1041562;28;19914;-79
2021/04/26 01:48:25;;;;;;;;;;;17.50;52.00;;;;;;1041578;28;19909;-80
2021/04/26 01:48:57;;;;;;;;;;;17.50;51.90;;;;;;1041365;28;19953;-78
2021/04/26 01:49:29;;;;;;;;;;;17.60;51.30;;;;;;1041216;28;19959;-79
2021/04/26 01:50:01;;;;;;;;;;;17.70;50.80;;;;;;1037410;28;19909;-79
2021/04/26 01:50:32;;;;;;;;;;;17.70;50.70;;;;;;1038147;28;19913;-78
2021/04/26 01:51:05;;;;;;;;;;;17.70;50.70;;;;;;1041375;28;20291;-79
2021/04/26 01:51:37;;;;;;;;;;;17.70;50.30;;;;;;1037345;28;19960;-78
2021/04/26 01:52:09;;;;;;;;;;;17.60;50.30;;;;;;1037947;28;19992;-78
2021/04/26 01:52:41;;;;;;;;;;;17.60;50.00;;;;;;1037508;28;20347;-78
2021/04/26 01:53:12;;;;;;;;;;;17.70;49.50;;;;;;1034883;28;19982;-79
2021/04/26 01:53:44;;;;;;;;;;;17.70;49.60;;;;;;1032729;28;19913;-79
2021/04/26 01:54:15;;;;;;;;;;;17.60;49.60;;;;;;1029260;28;20349;-79
2021/04/26 01:54:48;;;;;;;;;;;17.60;50.00;;;;;;1033819;28;19945;-78
2021/04/26 01:55:20;;;;;;;;;;;17.50;50.20;;;;;;1036719;28;19910;-78
2021/04/26 01:55:55;;;;;;;;;;;17.50;50.40;;;;;;1037438;28;19999;-78
2021/04/26 01:56:26;;;;;;;;;;;17.50;50.30;;;;;;1037909;28;19916;-78
2021/04/26 01:56:58;;;;;;;;;;;17.50;50.00;;;;;;1041420;28;19963;-78
2021/04/26 01:57:30;;;;;;;;;;;17.50;49.80;;;;;;1040224;28;19952;-79
2021/04/26 01:58:01;;;;;;;;;;;17.40;49.80;;;;;;1039820;28;20568;-77
2021/04/26 01:58:32;;;;;;;;;;;17.40;50.10;;;;;;1037483;28;19909;-78
2021/04/26 01:59:04;;;;;;;;;;;17.30;50.30;;;;;;1039234;28;19971;-78
2021/04/26 01:59:37;;;;;;;;;;;17.40;50.30;;;;;;1041268;28;19913;-78
2021/04/26 02:00:10;;;;;;;;;;;17.40;50.20;;;;;;1039048;28;21596;-79
2021/04/26 02:00:41;;;;;;;;;;;17.40;50.20;;;;;;1038922;28;20416;-79
2021/04/26 02:01:14;;;;;;;;;;;17.40;50.20;;;;;;1039301;28;19909;-78
2021/04/26 02:01:45;;;;;;;;;;;17.40;50.30;;;;;;1037288;28;19920;-78
2021/04/26 02:02:16;;;;;;;;;;;17.40;50.40;;;;;;1037378;28;19914;-78
2021/04/26 02:02:48;;;;;;;;;;;17.40;50.40;;;;;;1037501;28;19905;-77
2021/04/26 02:03:23;;;;;;;;;;;17.50;50.10;;;;;;1040856;28;19912;-78
2021/04/26 02:03:56;;;;;;;;;;;17.40;50.20;;;;;;1042373;28;19917;-79
2021/04/26 02:04:28;;;;;;;;;;;17.40;50.40;;;;;;1039602;28;19928;-78
2021/04/26 02:04:59;;;;;;;;;;;17.30;50.30;;;;;;1037473;28;19906;-78
2021/04/26 02:05:31;;;;;;;;;;;17.30;50.50;;;;;;1038242;28;19932;-78
2021/04/26 02:06:02;;;;;;;;;;;17.30;50.60;;;;;;1037719;28;19906;-78
2021/04/26 02:06:34;;;;;;;;;;;17.40;50.60;;;;;;1041703;28;20247;-79
2021/04/26 02:07:05;;;;;;;;;;;17.30;50.80;;;;;;1037091;28;20319;-79
2021/04/26 02:07:37;;;;;;;;;;;17.30;51.00;;;;;;1037586;28;19906;-79
2021/04/26 02:08:08;;;;;;;;;;;17.20;51.00;;;;;;1041632;28;19905;-79
2021/04/26 02:08:39;;;;;;;;;;;17.30;50.80;;;;;;1041611;28;20296;-79
2021/04/26 02:09:10;;;;;;;;;;;17.20;50.70;;;;;;1037332;28;20347;-78
2021/04/26 02:09:42;;;;;;;;;;;17.20;50.80;;;;;;1033743;28;19950;-78
2021/04/26 02:10:13;;;;;;;;;;;17.20;51.00;;;;;;1033342;28;20004;-78
2021/04/26 02:10:44;;;;;;;;;;;17.20;51.20;;;;;;1033177;28;20344;-78
2021/04/26 02:11:16;;;;;;;;;;;17.10;51.20;;;;;;1033716;28;19914;-79
2021/04/26 02:11:47;;;;;;;;;;;17.10;51.30;;;;;;1036689;28;19917;-79
2021/04/26 02:12:18;;;;;;;;;;;17.10;51.20;;;;;;1035082;28;19937;-79
2021/04/26 02:12:50;;;;;;;;;;;17.10;51.30;;;;;;1040856;28;19910;-79
2021/04/26 02:13:22;;;;;;;;;;;17.10;51.30;;;;;;1035169;28;19914;-78
2021/04/26 02:13:54;;;;;;;;;;;17.10;51.30;;;;;;1032520;28;19918;-79
2021/04/26 02:14:26;;;;;;;;;;;17.10;51.40;;;;;;1033352;28;20260;-79
2021/04/26 02:14:57;;;;;;;;;;;17.10;51.50;;;;;;1033146;28;19930;-79
2021/04/26 02:15:29;;;;;;;;;;;17.00;51.60;;;;;;1033972;28;19921;-79
2021/04/26 02:16:01;;;;;;;;;;;17.00;51.50;;;;;;1033197;28;19910;-78
2021/04/26 02:16:32;;;;;;;;;;;17.10;51.60;;;;;;1035253;28;19910;-79
2021/04/26 02:17:04;;;;;;;;;;;17.10;51.50;;;;;;1039104;28;19923;-78
2021/04/26 02:17:35;;;;;;;;;;;17.10;51.60;;;;;;1032764;28;19932;-78
2021/04/26 02:18:07;;;;;;;;;;;17.00;51.60;;;;;;1037165;28;19939;-79
2021/04/26 02:18:38;;;;;;;;;;;17.00;51.60;;;;;;1036691;28;19925;-78
2021/04/26 02:19:10;;;;;;;;;;;16.90;51.70;;;;;;1037420;28;19917;-78
2021/04/26 02:19:41;;;;;;;;;;;17.00;51.90;;;;;;1039836;28;20031;-80
2021/04/26 02:20:13;;;;;;;;;;;17.00;51.90;;;;;;1035638;28;19913;-79
2021/04/26 02:20:44;;;;;;;;;;;17.00;51.90;;;;;;1033985;28;19914;-78
2021/04/26 02:21:15;;;;;;;;;;;16.90;51.80;;;;;;1040680;28;19909;-79
2021/04/26 02:21:46;;;;;;;;;;;16.90;52.00;;;;;;1037331;28;19913;-77
2021/04/26 02:22:17;;;;;;;;;;;16.80;52.30;;;;;;1036009;28;19956;-79
2021/04/26 02:22:49;;;;;;;;;;;16.80;52.50;;;;;;1037751;28;20274;-78
2021/04/26 02:23:21;;;;;;;;;;;16.70;52.50;;;;;;1041432;28;19932;-79
2021/04/26 02:23:53;;;;;;;;;;;16.70;52.60;;;;;;1041326;28;19909;-80
2021/04/26 02:24:24;;;;;;;;;;;16.70;52.70;;;;;;1041151;28;19921;-80
2021/04/26 02:24:55;;;;;;;;;;;16.60;52.80;;;;;;1041480;28;19913;-80
2021/04/26 02:25:26;;;;;;;;;;;16.50;52.90;;;;;;1041495;28;19992;-79
2021/04/26 02:26:00;;;;;;;;;;;16.50;53.10;;;;;;1041582;28;20009;-80
2021/04/26 02:26:32;;;;;;;;;;;16.40;53.20;;;;;;1041481;28;19909;-80
2021/04/26 02:27:03;;;;;;;;;;;16.40;53.40;;;;;;1041362;28;20362;-78
2021/04/26 02:27:34;;;;;;;;;;;16.30;53.50;;;;;;1040571;28;19940;-77
2021/04/26 02:28:06;;;;;;;;;;;16.30;53.60;;;;;;1037358;28;20011;-78
2021/04/26 02:28:37;;;;;;;;;;;16.30;53.70;;;;;;1033777;28;20443;-78
2021/04/26 02:29:08;;;;;;;;;;;16.20;53.90;;;;;;1033557;28;19952;-77
2021/04/26 02:29:39;;;;;;;;;;;16.20;54.10;;;;;;1029553;28;19910;-78
2021/04/26 02:30:10;;;;;;;;;;;16.20;54.30;;;;;;1029611;28;19907;-78
2021/04/26 02:30:41;;;;;;;;;;;16.20;54.30;;;;;;1033584;28;19956;-78
2021/04/26 02:31:17;;;;;;;;;;;16.10;54.30;;;;;;1038983;28;19967;-78
2021/04/26 02:31:50;;;;;;;;;;;16.10;54.40;;;;;;1041904;28;20000;-78
2021/04/26 02:32:24;;;;;;;;;;;16.10;54.40;;;;;;1042939;28;19916;-78
2021/04/26 02:33:01;;;;;;;;;;;16.10;54.60;;;;;;1041563;28;19944;-78
2021/04/26 02:33:40;;;;;;;;;;;16.00;54.70;;;;;;1041455;28;19912;-78
2021/04/26 02:34:23;;;;;;;;;;;16.00;54.90;;;;;;1039843;28;19913;-78
2021/04/26 02:34:55;;;;;;;;;;;15.90;55.60;;;;;;1040740;28;20036;-78
2021/04/26 02:35:31;;;;;;;;;;;15.90;54.90;;;;;;1040966;28;19909;-79
2021/04/26 02:36:05;;;;;;;;;;;16.00;55.00;;;;;;1040779;28;20224;-78
2021/04/26 02:36:39;;;;;;;;;;;16.00;55.20;;;;;;1039262;28;19909;-78
2021/04/26 02:37:19;;;;;;;;;;;15.90;55.20;;;;;;1037463;28;19909;-78
2021/04/26 02:37:59;;;;;;;;;;;15.90;55.30;;;;;;1037473;28;20243;-78
2021/04/26 02:38:36;;;;;;;;;;;15.90;55.40;;;;;;1037484;28;20345;-78
2021/04/26 02:39:07;;;;;;;;;;;15.90;55.30;;;;;;1042746;28;19909;-78
2021/04/26 02:39:39;;;;;;;;;;;15.90;55.10;;;;;;1041262;28;19932;-77
2021/04/26 02:40:12;;;;;;;;;;;16.00;55.00;;;;;;1040013;28;20298;-79
2021/04/26 02:40:45;;;;;;;;;;;16.00;55.00;;;;;;1037873;28;19964;-80
2021/04/26 02:41:19;;;;;;;;;;;15.90;55.00;;;;;;1039934;28;20336;-77
2021/04/26 02:41:50;;;;;;;;;;;15.90;55.20;;;;;;1041242;28;19947;-79
2021/04/26 02:42:22;;;;;;;;;;;15.80;55.30;;;;;;1041096;28;20301;-78
2021/04/26 02:42:55;;;;;;;;;;;15.80;55.60;;;;;;1040182;28;19992;-78
2021/04/26 02:43:26;;;;;;;;;;;15.70;55.60;;;;;;1036736;28;20260;-79
2021/04/26 02:43:59;;;;;;;;;;;15.70;55.70;;;;;;1030318;28;19917;-79
2021/04/26 02:44:31;;;;;;;;;;;15.80;55.60;;;;;;1032903;28;20229;-78
2021/04/26 02:45:02;;;;;;;;;;;15.90;55.40;;;;;;1037521;28;20279;-79
2021/04/26 02:45:35;;;;;;;;;;;15.90;55.20;;;;;;1039801;28;19906;-79
2021/04/26 02:46:07;;;;;;;;;;;15.80;55.50;;;;;;1041214;28;19917;-79
2021/04/26 02:46:39;;;;;;;;;;;15.80;55.40;;;;;;1039791;28;19909;-79
2021/04/26 02:47:13;;;;;;;;;;;15.80;55.50;;;;;;1039916;28;20379;-77
2021/04/26 02:47:45;;;;;;;;;;;15.80;55.50;;;;;;1041554;28;19920;-77
2021/04/26 02:48:17;;;;;;;;;;;15.70;55.60;;;;;;1041685;28;19969;-79
2021/04/26 02:48:49;;;;;;;;;;;15.70;55.80;;;;;;1041360;28;20284;-79
2021/04/26 02:49:20;;;;;;;;;;;15.60;56.10;;;;;;1040686;28;19905;-79
2021/04/26 02:49:51;;;;;;;;;;;15.50;56.10;;;;;;1041198;28;19928;-80
2021/04/26 02:50:24;;;;;;;;;;;15.50;56.20;;;;;;1041275;28;19999;-77
2021/04/26 02:50:57;;;;;;;;;;;15.50;56.40;;;;;;1036673;28;19945;-78
2021/04/26 02:51:29;;;;;;;;;;;15.40;56.40;;;;;;1035145;28;20457;-78
2021/04/26 02:52:00;;;;;;;;;;;15.40;56.60;;;;;;1037743;28;19940;-78
2021/04/26 02:52:32;;;;;;;;;;;15.30;56.80;;;;;;1041279;28;19909;-78
2021/04/26 02:53:03;;;;;;;;;;;15.30;56.90;;;;;;1041861;28;19971;-78
2021/04/26 02:53:35;;;;;;;;;;;15.20;57.00;;;;;;1044923;28;19908;-78
2021/04/26 02:54:07;;;;;;;;;;;15.20;57.10;;;;;;1036054;28;20402;-77
2021/04/26 02:54:40;;;;;;;;;;;15.20;57.10;;;;;;1037549;28;19953;-77
2021/04/26 02:55:12;;;;;;;;;;;15.20;57.50;;;;;;1041344;28;19909;-77
2021/04/26 02:55:43;;;;;;;;;;;15.10;57.40;;;;;;1040644;28;19917;-77
2021/04/26 02:56:15;;;;;;;;;;;15.10;57.60;;;;;;1039880;28;21148;-77
2021/04/26 02:56:46;;;;;;;;;;;15.10;58.40;;;;;;1041145;28;19940;-78
2021/04/26 02:57:18;;;;;;;;;;;15.10;57.90;;;;;;1040770;28;19932;-77
2021/04/26 02:57:49;;;;;;;;;;;15.10;57.70;;;;;;1038984;28;19944;-78
2021/04/26 02:58:22;;;;;;;;;;;15.10;57.80;;;;;;1035992;28;19922;-77
2021/04/26 02:58:55;;;;;;;;;;;15.10;57.80;;;;;;1038028;28;19913;-76
2021/04/26 02:59:27;;;;;;;;;;;15.10;57.90;;;;;;1039881;28;19959;-77
2021/04/26 02:59:59;;;;;;;;;;;15.10;57.90;;;;;;1041045;28;20007;-77
2021/04/26 03:00:31;;;;;;;;;;;15.10;57.90;;;;;;1040215;28;19917;-77
2021/04/26 03:01:04;;;;;;;;;;;15.10;57.90;;;;;;1038986;28;19925;-77
2021/04/26 03:01:36;;;;;;;;;;;15.00;57.90;;;;;;1043672;28;20239;-77
2021/04/26 03:02:08;;;;;;;;;;;15.00;58.10;;;;;;1044858;28;20334;-77
2021/04/26 03:02:39;;;;;;;;;;;15.00;58.00;;;;;;1045389;28;19920;-76
2021/04/26 03:03:11;;;;;;;;;;;15.00;58.00;;;;;;1043192;28;19909;-77
2021/04/26 03:03:43;;;;;;;;;;;14.90;58.00;;;;;;1040974;28;19917;-78
2021/04/26 03:04:18;;;;;;;;;;;14.90;58.00;;;;;;1041340;28;19963;-77
2021/04/26 03:04:50;;;;;;;;;;;14.90;58.20;;;;;;1041364;28;20332;-77
2021/04/26 03:05:21;;;;;;;;;;;14.90;58.30;;;;;;1037798;28;19952;-78
2021/04/26 03:05:53;;;;;;;;;;;14.90;58.50;;;;;;1039054;28;20027;-76
2021/04/26 03:06:25;;;;;;;;;;;14.90;58.30;;;;;;1040055;28;19913;-77
2021/04/26 03:06:57;;;;;;;;;;;14.90;58.40;;;;;;1041828;28;20303;-77
2021/04/26 03:07:29;;;;;;;;;;;14.90;58.50;;;;;;1037543;28;19913;-78
2021/04/26 03:08:00;;;;;;;;;;;14.90;58.40;;;;;;1040243;28;19910;-77
2021/04/26 03:08:31;;;;;;;;;;;14.90;59.10;;;;;;1039816;28;19913;-78
2021/04/26 03:09:03;;;;;;;;;;;14.90;58.50;;;;;;1038658;28;19968;-78
2021/04/26 03:09:37;;;;;;;;;;;14.80;58.50;;;;;;1038050;28;19948;-78
2021/04/26 03:10:10;;;;;;;;;;;14.80;58.30;;;;;;1041253;28;19917;-78
2021/04/26 03:10:41;;;;;;;;;;;14.80;58.20;;;;;;1041615;28;20347;-78